Flight Track Log - Related Links

Times and Time Zones

All times are in EDT time to prevent confusion due to time zone crossing. See the RPA4920 flight status page for this flight to view local times or setup timezone preferences in your user account.

Time Position Orientation Groundspeed Altitude Reporting Facility
EDT Latitude Longitude Course Direction KTS MPH feet Rate Location/Type
Fri 10:11:54 PM 39.8833 -104.7833 207° Southwest 216 249 8,600  Level Denver TRACON
Fri 10:12:54 PM 39.8667 -104.8500 252° West 213 245 11,000 2,203 Climbing Denver TRACON
Fri 10:13:13 PM 39.8483 -104.8506 181° South 217 250 11,500 1,725 Climbing Denver Center
Fri 10:14:14 PM 39.7844 -104.8658 190° South 232 267 13,300 1,805 Climbing Denver Center
Fri 10:15:16 PM 39.7150 -104.8864 193° South 239 275 15,200 1,694 Climbing Denver Center
Fri 10:16:18 PM 39.6483 -104.9072 194° South 250 288 16,800 1,403 Climbing Denver Center
Fri 10:17:00 PM 39.3700 -104.9144 207° Southwest  Level FlightAware Approximate
Fri 10:17:20 PM 39.5797 -104.9289 194° South 258 297 18,100  Level Denver Center
Fri 10:18:22 PM 39.5022 -104.9539 194° South 269 310 19,200 1,113 Climbing Denver Center
Fri 10:19:24 PM 39.4258 -104.9772 193° South 282 325 20,400 1,113 Climbing Denver Center
Fri 10:20:26 PM 39.3425 -105.0019 193° South 285 328 21,500 1,016 Climbing Denver Center
Fri 10:21:28 PM 39.2636 -105.0244 192° South 290 334 22,500 976 Climbing Denver Center
Fri 10:22:29 PM 39.1786 -105.0514 194° South 292 336 23,500 732 Climbing Denver Center
Fri 10:23:31 PM 39.1033 -105.0831 198° South 282 325 24,000 242 Climbing Denver Center
Fri 10:24:33 PM 39.0239 -105.1322 206° Southwest 308 354 24,000  Level Denver Center
Fri 10:25:35 PM 38.9381 -105.1817 204° Southwest 330 380 24,000  Level Denver Center
Fri 10:26:36 PM 38.8419 -105.2367 204° Southwest 345 397 24,000  Level Denver Center
Fri 10:27:38 PM 38.7553 -105.2878 205° Southwest 355 409 24,000  Level Denver Center
Fri 10:28:40 PM 38.6625 -105.3656 213° Southwest 362 417 24,000  Level Denver Center
Fri 10:29:41 PM 38.6011 -105.4542 228° Southwest 351 404 24,000  Level Denver Center
Fri 10:30:43 PM 38.5378 -105.5364 225° Southwest 341 392 24,000  Level Denver Center
Fri 10:31:45 PM 38.4650 -105.6350 227° Southwest 341 392 24,000  Level Denver Center
Fri 10:32:46 PM 38.4017 -105.7186 226° Southwest 343 395 24,000  Level Denver Center
Fri 10:33:48 PM 38.3278 -105.8167 226° Southwest 343 395 24,000  Level Denver Center
Fri 10:34:50 PM 38.2644 -105.9000 226° Southwest 344 396 24,000  Level Denver Center
Fri 10:35:51 PM 38.1911 -105.9964 226° Southwest 340 391 24,000  Level Denver Center
Fri 10:36:53 PM 38.1283 -106.0797 226° Southwest 341 392 24,000  Level Denver Center
Fri 10:37:55 PM 38.0550 -106.1758 226° Southwest 339 390 24,000  Level Denver Center
Fri 10:38:56 PM 37.9892 -106.2614 226° Southwest 343 395 24,000  Level Denver Center
Fri 10:39:58 PM 37.9256 -106.3450 226° Southwest 344 396 24,000  Level Denver Center
Fri 10:40:59 PM 37.8511 -106.4411 226° Southwest 342 394 24,000  Level Denver Center
Fri 10:42:01 PM 37.7867 -106.5233 225° Southwest 343 395 24,000  Level Denver Center
Fri 10:43:02 PM 37.7239 -106.6047 226° Southwest 339 390 24,000  Level Denver Center
Fri 10:44:04 PM 37.6517 -106.7017 227° Southwest 338 389 24,000  Level Denver Center
Fri 10:45:06 PM 37.5878 -106.7819 225° Southwest 339 390 24,000  Level Denver Center
Fri 10:46:07 PM 37.5122 -106.8753 224° Southwest 339 390 24,000 -537 Level Denver Center
Fri 10:47:09 PM 37.4519 -106.9575 227° Southwest 336 387 22,900 -1,463 Descending Denver Center
Fri 10:48:10 PM 37.3792 -107.0492 225° Southwest 333 383 21,000 -1,756 Descending Denver Center
Fri 10:49:12 PM 37.3136 -107.1311 225° Southwest 341 392 19,300 -1,610 Descending Denver Center
Fri 10:50:13 PM 37.2483 -107.2142 225° Southwest 348 400 17,700 -1,623 Descending Denver Center
Fri 10:51:14 PM 37.1736 -107.3075 225° Southwest 342 394 16,000 -1,512 Descending Denver Center
Fri 10:52:16 PM 37.1114 -107.3861 225° Southwest 337 388 14,600 -1,512 Descending Denver Center
Fri 10:53:17 PM 37.0397 -107.4767 225° Southwest 331 381 12,900 -1,268 Descending Denver Center
Fri 10:54:19 PM 36.9778 -107.5544 225° Southwest 329 379 12,000 -634 Descending Denver Center
Fri 10:55:20 PM 36.9278 -107.6411 234° Southwest 325 374 11,600 -492 Descending Denver Center
Fri 10:56:21 PM 36.9203 -107.7708 266° West 326 375 11,000 -537 Descending Denver Center
Fri 10:57:23 PM 36.9411 -107.8706 285° West 316 364 10,500 -537 Descending Denver Center
Fri 10:58:24 PM 37.0006 -107.9097 332° Northwest 268 308 9,900 -780 Descending Denver Center
Fri 10:59:26 PM 37.0375 -107.8622 46° Northeast 217 250 8,900 -780 Descending Denver Center
Fri 11:00:27 PM 37.0708 -107.8258 41° Northeast 185 213 8,300 -738 Descending Denver Center
Fri 11:01:28 PM 37.1094 -107.7908 36° Northeast 161 185 7,400 -732 Descending Denver Center
Fri 11:02:30 PM 37.1411 -107.7619 36° Northeast 157 181 6,800 -581 Descending Denver Center

Login

Don't have an account? Register now (free) for customized features, flight alerts, and more!